This is the latest recevied weather packets stored in our database for station/object KD5KNZ-13. If no packets are shown the sender has not sent any weather packets the latest 10 day(s).
| Time | Temp. | Humidity | Pressure | Rain* | Wind** | Luminosity | Snow |
|---|---|---|---|---|---|---|---|
| 1777439747 | 23.33° C | 89% | 1015.4 hPa | 0 mm | - | - | - |
| 1777437945 | 23.89° C | 89% | 1015.2 hPa | 0 mm | - | - | - |
| 1777434350 | 23.89° C | 88% | 1014.6 hPa | 0 mm | - | - | - |
| 1777432549 | 23.89° C | 87% | 1014.4 hPa | 0 mm | - | - | - |
| 1777431646 | 23.89° C | 86% | 1014.2 hPa | 0 mm | - | - | - |
| 1777427146 | 24.44° C | 88% | 1014.4 hPa | 0 mm | - | - | - |
| 1777425349 | 24.44° C | 88% | 1014.5 hPa | 0 mm | - | - | - |
| 1777420844 | 26.11° C | 83% | 1014.4 hPa | 0 mm | - | - | - |
| 1777418138 | 26.67° C | 80% | 1013.8 hPa | 0 mm | - | - | - |
| 1777413640 | 27.78° C | 75% | 1013.9 hPa | 0 mm | - | - | - |
| 1777400149 | 28.33° C | 72% | 1016.9 hPa | 0 mm | - | - | - |
| 1777396545 | 28.33° C | 74% | 1017.4 hPa | 0 mm | - | - | - |
| 1777393856 | 27.22° C | 78% | 1018 hPa | 0 mm | - | - | - |
| 1777391144 | 26.67° C | 79% | 1018.3 hPa | 0 mm | - | - | - |
| 1777382152 | 23.33° C | 95% | 1017.6 hPa | 0 mm | - | - | - |
| 1777380351 | 22.22° C | 95% | 1017 hPa | 0 mm | - | - | - |
| 1777372262 | 21.11° C | 94% | 1015.4 hPa | 0 mm | - | - | - |
| 1777371340 | 21.67° C | 94% | 1015.3 hPa | 0 mm | - | - | - |
| 1777362341 | 22.22° C | 93% | 1015.6 hPa | 0 mm | - | - | - |
| 1777361440 | 22.22° C | 92% | 1015.8 hPa | 0 mm | - | - | - |
| 1777353348 | 22.78° C | 90% | 1015.7 hPa | 0 mm | - | - | - |
| 1777347045 | 23.33° C | 87% | 1015.8 hPa | 0 mm | - | - | - |
| 1777343446 | 23.89° C | 83% | 1015.6 hPa | 0 mm | - | - | - |
| 1777337149 | 25.56° C | 76% | 1014.8 hPa | 0 mm | - | - | - |
| 1777333549 | 26.67° C | 72% | 1014.2 hPa | 0 mm | - | - | - |
* Rain latest hour (hover to see other rain measurements)
** Current wind speed in m/s (hover to see current wind gust speed)